createdAt,value
2023-03-29T00:02:50.428Z,6.81
2023-03-29T00:07:54.468Z,6.79
2023-03-29T00:12:57.448Z,6.86
2023-03-29T00:18:00.441Z,6.78
2023-03-29T00:23:03.313Z,6.68
2023-03-29T00:28:06.285Z,6.63
2023-03-29T00:33:09.255Z,6.59
2023-03-29T00:38:12.198Z,6.48
2023-03-29T00:43:16.073Z,6.39
2023-03-29T00:48:24.571Z,6.27
2023-03-29T00:53:36.218Z,6.12
2023-03-29T00:59:13.894Z,6.02
2023-03-29T01:04:40.890Z,5.90
2023-03-29T01:09:48.935Z,5.87
2023-03-29T01:14:56.747Z,5.91
2023-03-29T01:20:13.912Z,5.88
2023-03-29T01:25:53.830Z,5.93
2023-03-29T01:31:04.258Z,5.99
2023-03-29T01:36:27.388Z,5.92
2023-03-29T01:41:42.681Z,6.00
2023-03-29T01:46:55.372Z,5.97
2023-03-29T01:52:06.880Z,5.93
2023-03-29T01:57:12.044Z,5.75
2023-03-29T02:02:18.176Z,5.87
2023-03-29T02:07:27.200Z,5.89
2023-03-29T02:12:30.100Z,5.95
2023-03-29T02:17:33.104Z,5.99
2023-03-29T02:22:55.190Z,5.94
2023-03-29T02:27:58.734Z,6.02
2023-03-29T02:33:11.029Z,6.01
2023-03-29T02:38:15.037Z,5.97
2023-03-29T02:43:19.437Z,6.02
2023-03-29T02:48:26.690Z,6.02
2023-03-29T02:53:40.606Z,6.01
2023-03-29T02:58:43.652Z,5.96
2023-03-29T03:03:48.301Z,6.03
2023-03-29T03:08:51.248Z,6.16
2023-03-29T03:13:54.082Z,6.27
2023-03-29T03:18:56.988Z,6.26
2023-03-29T03:24:18.673Z,6.42
2023-03-29T03:29:22.038Z,6.47
2023-03-29T03:34:45.095Z,6.49
2023-03-29T03:40:12.211Z,6.56
2023-03-29T03:45:16.041Z,6.74
2023-03-29T03:50:38.474Z,6.74
2023-03-29T03:55:42.992Z,6.70
2023-03-29T04:00:51.701Z,6.66
2023-03-29T04:06:11.939Z,6.71
2023-03-29T04:11:34.900Z,6.80
2023-03-29T04:16:56.547Z,6.89
2023-03-29T04:22:18.268Z,7.01
2023-03-29T04:27:21.803Z,7.14
2023-03-29T04:32:25.002Z,7.14
2023-03-29T04:37:48.561Z,6.98
2023-03-29T04:42:52.928Z,7.16
2023-03-29T04:47:59.827Z,7.02
2023-03-29T04:53:03.797Z,7.18
2023-03-29T04:58:08.119Z,7.22
2023-03-29T05:03:14.752Z,7.42
2023-03-29T05:08:40.107Z,7.55
2023-03-29T05:13:49.263Z,7.64
2023-03-29T05:18:52.975Z,7.86
2023-03-29T05:23:56.156Z,8.23
2023-03-29T05:29:19.327Z,8.43
2023-03-29T05:34:28.783Z,8.83
2023-03-29T05:39:37.888Z,8.90
2023-03-29T05:44:41.998Z,8.89
2023-03-29T05:49:52.906Z,9.09
2023-03-29T05:54:57.935Z,9.27
2023-03-29T06:00:02.221Z,9.10
2023-03-29T06:05:23.593Z,9.26
2023-03-29T06:10:44.284Z,9.43
2023-03-29T06:16:01.415Z,9.73
2023-03-29T06:21:05.533Z,9.72
2023-03-29T06:26:09.004Z,10.02
2023-03-29T06:31:13.361Z,9.94
2023-03-29T06:36:17.011Z,10.14
2023-03-29T06:41:20.168Z,10.33
2023-03-29T06:46:38.362Z,10.45
2023-03-29T06:51:43.637Z,10.35
2023-03-29T06:56:47.551Z,10.48
2023-03-29T07:01:55.536Z,10.52
2023-03-29T07:07:22.811Z,10.69
2023-03-29T07:12:38.274Z,10.65
2023-03-29T07:17:42.059Z,10.82
2023-03-29T07:22:47.405Z,11.10
2023-03-29T07:27:52.318Z,11.30
2023-03-29T07:32:57.766Z,11.24
2023-03-29T07:38:09.879Z,11.25
2023-03-29T07:43:21.925Z,11.15
2023-03-29T07:48:25.567Z,11.08
2023-03-29T07:53:34.140Z,11.32
2023-03-29T07:58:40.881Z,11.30
2023-03-29T08:03:44.293Z,11.69
2023-03-29T08:08:47.713Z,11.88
2023-03-29T08:13:52.954Z,11.86
2023-03-29T08:19:01.816Z,12.17
2023-03-29T08:24:21.110Z,12.30
2023-03-29T08:29:29.529Z,12.54
2023-03-29T08:34:32.338Z,12.48
2023-03-29T08:39:51.184Z,12.32
2023-03-29T08:45:43.916Z,11.73
2023-03-29T08:50:53.012Z,11.53
2023-03-29T08:55:59.941Z,11.90
2023-03-29T09:01:22.958Z,12.31
2023-03-29T09:06:28.845Z,12.04
2023-03-29T09:11:47.746Z,12.38
2023-03-29T09:16:56.420Z,12.70
2023-03-29T09:22:31.684Z,12.49
2023-03-29T09:27:50.343Z,12.66
2023-03-29T09:33:13.962Z,12.61
2023-03-29T09:38:33.246Z,13.09
2023-03-29T09:43:41.599Z,13.36
2023-03-29T09:48:50.964Z,13.81
2023-03-29T09:53:57.253Z,14.07
2023-03-29T09:59:28.367Z,13.96
2023-03-29T10:04:32.229Z,13.76
2023-03-29T10:09:36.998Z,13.72
2023-03-29T10:14:54.826Z,13.70
2023-03-29T10:20:20.064Z,13.94
2023-03-29T10:25:29.041Z,13.52
2023-03-29T10:30:37.437Z,13.44
2023-03-29T10:35:44.387Z,13.83
2023-03-29T10:41:12.360Z,13.88
2023-03-29T10:46:21.168Z,13.96
2023-03-29T10:51:25.554Z,13.98
2023-03-29T10:56:42.076Z,13.97
2023-03-29T11:02:00.239Z,13.95
2023-03-29T11:07:33.046Z,13.92
2023-03-29T11:12:57.949Z,13.78
2023-03-29T11:18:12.643Z,13.87
2023-03-29T11:23:41.701Z,14.04
2023-03-29T11:28:50.436Z,13.47
2023-03-29T11:34:18.345Z,13.46
2023-03-29T11:39:30.594Z,13.43
2023-03-29T11:44:34.625Z,13.44
2023-03-29T11:50:13.612Z,13.38
2023-03-29T11:55:26.722Z,13.66
2023-03-29T12:00:52.232Z,13.70
2023-03-29T12:06:07.651Z,13.84
2023-03-29T12:11:23.113Z,14.01
2023-03-29T12:16:37.583Z,14.25
2023-03-29T12:21:42.989Z,14.01
2023-03-29T12:27:01.716Z,13.91
2023-03-29T12:32:25.928Z,13.85
2023-03-29T12:38:04.440Z,13.89
2023-03-29T12:43:43.581Z,13.81
2023-03-29T12:48:57.971Z,13.57
2023-03-29T12:54:17.228Z,13.35
2023-03-29T12:59:23.175Z,13.44
2023-03-29T13:05:01.541Z,13.22
2023-03-29T13:10:10.437Z,13.28
2023-03-29T13:15:17.074Z,13.27
2023-03-29T13:20:37.558Z,13.08
2023-03-29T13:26:01.237Z,13.08
2023-03-29T13:31:08.459Z,13.15
2023-03-29T13:36:56.928Z,13.02
2023-03-29T13:42:19.970Z,13.02
2023-03-29T13:47:58.254Z,12.86
2023-03-29T13:53:15.417Z,12.67
2023-03-29T13:58:41.916Z,12.53
2023-03-29T14:03:48.764Z,12.46
2023-03-29T14:08:52.435Z,12.45
2023-03-29T14:14:15.002Z,12.29
2023-03-29T14:19:25.008Z,12.23
2023-03-29T14:24:51.935Z,12.13
2023-03-29T14:29:54.774Z,12.09
2023-03-29T14:34:58.258Z,11.90
2023-03-29T14:40:21.115Z,11.82
2023-03-29T14:45:43.358Z,11.78
2023-03-29T14:50:47.131Z,11.67
2023-03-29T14:55:54.046Z,11.59
2023-03-29T15:00:57.134Z,11.54
2023-03-29T15:06:04.058Z,11.33
2023-03-29T15:11:15.747Z,11.35
2023-03-29T15:16:22.781Z,11.20
2023-03-29T15:21:31.968Z,11.14
2023-03-29T15:26:36.870Z,10.99
2023-03-29T15:31:42.282Z,10.80
2023-03-29T15:36:46.794Z,10.73
2023-03-29T15:41:53.104Z,10.64
2023-03-29T15:46:58.019Z,10.42
2023-03-29T15:52:00.887Z,10.36
2023-03-29T15:57:07.863Z,10.27
2023-03-29T16:02:21.815Z,10.24
2023-03-29T16:07:24.716Z,10.20
2023-03-29T16:12:27.512Z,10.20
2023-03-29T16:17:30.323Z,10.11
2023-03-29T16:22:33.219Z,10.05
2023-03-29T16:27:36.316Z,10.07
2023-03-29T16:32:39.298Z,10.04
2023-03-29T16:37:42.374Z,10.00
2023-03-29T16:42:45.479Z,9.83
2023-03-29T16:47:49.034Z,9.91
2023-03-29T16:52:52.797Z,9.99
2023-03-29T16:57:55.379Z,10.02
2023-03-29T17:03:02.003Z,9.95
2023-03-29T17:08:05.109Z,9.88
2023-03-29T17:13:08.592Z,9.96
2023-03-29T17:18:12.387Z,10.08
2023-03-29T17:23:15.693Z,9.96
2023-03-29T17:28:20.452Z,9.95
2023-03-29T17:33:26.300Z,9.98
2023-03-29T17:38:31.407Z,9.93
2023-03-29T17:43:34.485Z,10.03
2023-03-29T17:48:38.082Z,10.04
2023-03-29T17:53:40.975Z,10.18
2023-03-29T17:58:43.848Z,10.18
2023-03-29T18:03:48.472Z,10.06
2023-03-29T18:08:53.374Z,10.20
2023-03-29T18:14:14.595Z,10.03
2023-03-29T18:19:17.480Z,10.17
2023-03-29T18:24:20.299Z,9.91
2023-03-29T18:29:24.114Z,9.97
2023-03-29T18:34:45.533Z,9.95
2023-03-29T18:39:48.991Z,9.97
2023-03-29T18:44:52.152Z,9.96
2023-03-29T18:49:55.499Z,10.04
2023-03-29T18:54:58.396Z,10.01
2023-03-29T19:05:55.558Z,9.96
2023-03-29T19:11:02.953Z,9.96
2023-03-29T19:16:06.362Z,10.03
2023-03-29T19:21:09.325Z,9.95
2023-03-29T19:26:12.390Z,9.92
2023-03-29T19:31:15.359Z,9.96
2023-03-29T19:36:18.345Z,9.93
2023-03-29T19:41:21.429Z,9.89
2023-03-29T19:46:24.431Z,9.86
2023-03-29T19:51:28.084Z,9.85
2023-03-29T19:56:30.771Z,9.84
2023-03-29T20:01:34.097Z,9.73
2023-03-29T20:06:37.112Z,9.73
2023-03-29T20:11:58.371Z,9.83
2023-03-29T20:17:01.194Z,9.71
2023-03-29T20:22:04.841Z,9.66
2023-03-29T20:27:07.785Z,9.57
2023-03-29T20:32:10.956Z,9.65
2023-03-29T20:37:14.895Z,9.66
2023-03-29T20:42:18.299Z,9.69
2023-03-29T20:47:21.374Z,9.55
2023-03-29T20:52:25.145Z,9.58
2023-03-29T20:57:29.279Z,9.53
2023-03-29T21:02:33.310Z,9.56
2023-03-29T21:07:36.805Z,9.55
2023-03-29T21:12:40.361Z,9.54
2023-03-29T21:17:43.206Z,9.57
2023-03-29T21:22:46.311Z,9.48
2023-03-29T21:27:49.467Z,9.60
2023-03-29T21:32:52.534Z,9.50
2023-03-29T21:37:55.632Z,9.61
2023-03-29T21:42:58.688Z,9.54
2023-03-29T21:48:01.775Z,9.50
2023-03-29T21:53:05.108Z,9.50
2023-03-29T21:58:08.297Z,9.51
2023-03-29T22:03:11.280Z,9.48
2023-03-29T22:08:14.150Z,9.43
2023-03-29T22:13:16.956Z,9.45
2023-03-29T22:18:21.040Z,9.36
2023-03-29T22:23:25.053Z,9.42
2023-03-29T22:28:27.872Z,9.46
2023-03-29T22:33:32.891Z,9.56
2023-03-29T22:38:35.853Z,9.54
2023-03-29T22:43:39.118Z,9.41
2023-03-29T22:48:42.169Z,9.49
2023-03-29T22:53:47.290Z,9.53
2023-03-29T22:58:50.206Z,9.54
2023-03-29T23:03:53.085Z,9.46
2023-03-29T23:08:56.189Z,9.41
2023-03-29T23:13:59.376Z,9.39
2023-03-29T23:19:02.903Z,9.46
2023-03-29T23:24:06.929Z,9.38
2023-03-29T23:29:09.825Z,9.28
2023-03-29T23:34:13.695Z,9.18
2023-03-29T23:39:16.600Z,9.09
2023-03-29T23:44:19.410Z,9.21
2023-03-29T23:49:23.002Z,9.13
2023-03-29T23:54:26.404Z,9.08
2023-03-29T23:59:31.370Z,9.20
